sensor_id;sensor_type;location;lat;lon;timestamp;P1;durP1;ratioP1;P2;durP2;ratioP2
69305;SDS011;56427;51.580;4.656;2022-08-21T00:00:15;9.20;;;4.57;;
69305;SDS011;56427;51.580;4.656;2022-08-21T00:02:51;9.32;;;4.88;;
69305;SDS011;56427;51.580;4.656;2022-08-21T00:05:19;8.33;;;4.90;;
69305;SDS011;56427;51.580;4.656;2022-08-21T00:07:45;10.02;;;5.25;;
69305;SDS011;56427;51.580;4.656;2022-08-21T00:10:11;10.37;;;4.90;;
69305;SDS011;56427;51.580;4.656;2022-08-21T00:12:37;8.63;;;4.80;;
69305;SDS011;56427;51.580;4.656;2022-08-21T00:15:05;15.73;;;5.38;;
69305;SDS011;56427;51.580;4.656;2022-08-21T00:17:32;13.97;;;6.07;;
69305;SDS011;56427;51.580;4.656;2022-08-21T00:19:57;12.48;;;5.38;;
69305;SDS011;56427;51.580;4.656;2022-08-21T00:22:23;11.20;;;6.17;;
69305;SDS011;56427;51.580;4.656;2022-08-21T00:24:49;11.47;;;5.50;;
69305;SDS011;56427;51.580;4.656;2022-08-21T00:27:14;13.18;;;6.05;;
69305;SDS011;56427;51.580;4.656;2022-08-21T00:29:39;8.70;;;5.70;;
69305;SDS011;56427;51.580;4.656;2022-08-21T00:32:05;11.90;;;5.30;;
69305;SDS011;56427;51.580;4.656;2022-08-21T00:34:30;15.67;;;5.50;;
69305;SDS011;56427;51.580;4.656;2022-08-21T00:36:56;10.73;;;5.13;;
69305;SDS011;56427;51.580;4.656;2022-08-21T00:39:21;12.10;;;4.57;;
69305;SDS011;56427;51.580;4.656;2022-08-21T00:41:46;10.20;;;4.93;;
69305;SDS011;56427;51.580;4.656;2022-08-21T00:44:12;9.73;;;4.83;;
69305;SDS011;56427;51.580;4.656;2022-08-21T00:46:38;14.60;;;4.83;;
69305;SDS011;56427;51.580;4.656;2022-08-21T00:49:05;14.35;;;3.97;;
69305;SDS011;56427;51.580;4.656;2022-08-21T00:51:34;13.85;;;4.80;;
69305;SDS011;56427;51.580;4.656;2022-08-21T00:54:06;16.77;;;4.93;;
69305;SDS011;56427;51.580;4.656;2022-08-21T00:56:34;16.60;;;4.75;;
69305;SDS011;56427;51.580;4.656;2022-08-21T00:58:59;12.70;;;4.77;;
69305;SDS011;56427;51.580;4.656;2022-08-21T01:01:26;11.80;;;4.68;;
69305;SDS011;56427;51.580;4.656;2022-08-21T01:03:52;9.30;;;4.33;;
69305;SDS011;56427;51.580;4.656;2022-08-21T01:06:18;11.77;;;5.40;;
69305;SDS011;56427;51.580;4.656;2022-08-21T01:08:43;15.77;;;5.17;;
69305;SDS011;56427;51.580;4.656;2022-08-21T01:11:09;11.63;;;4.88;;
69305;SDS011;56427;51.580;4.656;2022-08-21T01:13:35;12.83;;;4.50;;
69305;SDS011;56427;51.580;4.656;2022-08-21T01:16:02;10.23;;;4.60;;
69305;SDS011;56427;51.580;4.656;2022-08-21T01:18:29;13.27;;;4.57;;
69305;SDS011;56427;51.580;4.656;2022-08-21T01:21:00;12.23;;;4.10;;
69305;SDS011;56427;51.580;4.656;2022-08-21T01:23:28;14.85;;;5.60;;
69305;SDS011;56427;51.580;4.656;2022-08-21T01:25:54;11.97;;;4.80;;
69305;SDS011;56427;51.580;4.656;2022-08-21T01:28:19;12.10;;;4.90;;
69305;SDS011;56427;51.580;4.656;2022-08-21T01:30:46;9.15;;;4.53;;
69305;SDS011;56427;51.580;4.656;2022-08-21T01:33:13;9.50;;;4.78;;
69305;SDS011;56427;51.580;4.656;2022-08-21T01:35:38;9.47;;;4.80;;
69305;SDS011;56427;51.580;4.656;2022-08-21T01:38:04;14.33;;;4.67;;
69305;SDS011;56427;51.580;4.656;2022-08-21T01:40:29;12.80;;;5.27;;
69305;SDS011;56427;51.580;4.656;2022-08-21T01:42:54;10.63;;;4.13;;
69305;SDS011;56427;51.580;4.656;2022-08-21T01:45:20;13.15;;;4.80;;
69305;SDS011;56427;51.580;4.656;2022-08-21T01:47:45;9.00;;;4.33;;
69305;SDS011;56427;51.580;4.656;2022-08-21T01:50:14;14.23;;;4.88;;
69305;SDS011;56427;51.580;4.656;2022-08-21T01:52:41;12.40;;;4.67;;
69305;SDS011;56427;51.580;4.656;2022-08-21T01:55:07;11.82;;;5.13;;
69305;SDS011;56427;51.580;4.656;2022-08-21T01:57:35;11.87;;;4.73;;
69305;SDS011;56427;51.580;4.656;2022-08-21T02:00:00;11.82;;;4.38;;
69305;SDS011;56427;51.580;4.656;2022-08-21T02:02:26;9.67;;;4.27;;
69305;SDS011;56427;51.580;4.656;2022-08-21T02:04:51;12.10;;;5.07;;
69305;SDS011;56427;51.580;4.656;2022-08-21T02:07:17;13.13;;;5.03;;
69305;SDS011;56427;51.580;4.656;2022-08-21T02:09:43;10.03;;;4.50;;
69305;SDS011;56427;51.580;4.656;2022-08-21T02:12:10;9.85;;;4.43;;
69305;SDS011;56427;51.580;4.656;2022-08-21T02:14:36;11.40;;;5.00;;
69305;SDS011;56427;51.580;4.656;2022-08-21T02:17:01;12.82;;;5.22;;
69305;SDS011;56427;51.580;4.656;2022-08-21T02:19:27;7.13;;;4.17;;
69305;SDS011;56427;51.580;4.656;2022-08-21T02:21:52;11.67;;;4.97;;
69305;SDS011;56427;51.580;4.656;2022-08-21T02:24:17;13.07;;;4.73;;
69305;SDS011;56427;51.580;4.656;2022-08-21T02:26:43;8.13;;;4.33;;
69305;SDS011;56427;51.580;4.656;2022-08-21T02:29:08;10.20;;;4.77;;
69305;SDS011;56427;51.580;4.656;2022-08-21T02:31:33;11.30;;;4.50;;
69305;SDS011;56427;51.580;4.656;2022-08-21T02:33:58;12.77;;;4.82;;
69305;SDS011;56427;51.580;4.656;2022-08-21T02:36:24;10.60;;;5.20;;
69305;SDS011;56427;51.580;4.656;2022-08-21T02:38:50;12.97;;;5.07;;
69305;SDS011;56427;51.580;4.656;2022-08-21T02:41:18;10.33;;;4.77;;
69305;SDS011;56427;51.580;4.656;2022-08-21T02:43:46;8.83;;;4.03;;
69305;SDS011;56427;51.580;4.656;2022-08-21T02:46:12;12.55;;;5.00;;
69305;SDS011;56427;51.580;4.656;2022-08-21T02:48:39;10.45;;;5.07;;
69305;SDS011;56427;51.580;4.656;2022-08-21T02:51:16;12.67;;;4.97;;
69305;SDS011;56427;51.580;4.656;2022-08-21T02:53:43;13.50;;;5.10;;
69305;SDS011;56427;51.580;4.656;2022-08-21T02:56:10;14.35;;;5.93;;
69305;SDS011;56427;51.580;4.656;2022-08-21T02:58:40;10.57;;;5.07;;
69305;SDS011;56427;51.580;4.656;2022-08-21T03:01:08;15.80;;;5.68;;
69305;SDS011;56427;51.580;4.656;2022-08-21T03:03:34;12.35;;;5.32;;
69305;SDS011;56427;51.580;4.656;2022-08-21T03:06:02;14.03;;;5.23;;
69305;SDS011;56427;51.580;4.656;2022-08-21T03:08:28;11.55;;;4.55;;
69305;SDS011;56427;51.580;4.656;2022-08-21T03:10:54;13.47;;;4.60;;
69305;SDS011;56427;51.580;4.656;2022-08-21T03:13:19;11.35;;;4.85;;
69305;SDS011;56427;51.580;4.656;2022-08-21T03:15:48;12.10;;;5.00;;
69305;SDS011;56427;51.580;4.656;2022-08-21T03:18:14;13.27;;;5.57;;
69305;SDS011;56427;51.580;4.656;2022-08-21T03:20:41;14.43;;;4.97;;
69305;SDS011;56427;51.580;4.656;2022-08-21T03:23:07;10.45;;;4.53;;
69305;SDS011;56427;51.580;4.656;2022-08-21T03:25:34;10.70;;;4.50;;
69305;SDS011;56427;51.580;4.656;2022-08-21T03:28:01;11.50;;;4.32;;
69305;SDS011;56427;51.580;4.656;2022-08-21T03:30:28;13.45;;;4.97;;
69305;SDS011;56427;51.580;4.656;2022-08-21T03:32:56;18.17;;;6.80;;
69305;SDS011;56427;51.580;4.656;2022-08-21T03:35:22;15.80;;;5.38;;
69305;SDS011;56427;51.580;4.656;2022-08-21T03:37:47;12.43;;;5.43;;
69305;SDS011;56427;51.580;4.656;2022-08-21T03:40:13;13.20;;;5.03;;
69305;SDS011;56427;51.580;4.656;2022-08-21T03:42:40;10.68;;;5.20;;
69305;SDS011;56427;51.580;4.656;2022-08-21T03:45:06;17.50;;;6.43;;
69305;SDS011;56427;51.580;4.656;2022-08-21T03:47:32;14.57;;;5.45;;
69305;SDS011;56427;51.580;4.656;2022-08-21T03:49:58;15.43;;;5.83;;
69305;SDS011;56427;51.580;4.656;2022-08-21T03:52:24;15.85;;;5.43;;
69305;SDS011;56427;51.580;4.656;2022-08-21T03:54:49;12.27;;;5.77;;
69305;SDS011;56427;51.580;4.656;2022-08-21T03:57:15;11.02;;;5.72;;
69305;SDS011;56427;51.580;4.656;2022-08-21T03:59:41;15.20;;;6.13;;
69305;SDS011;56427;51.580;4.656;2022-08-21T04:02:08;13.88;;;6.55;;
69305;SDS011;56427;51.580;4.656;2022-08-21T04:04:35;16.15;;;6.47;;
69305;SDS011;56427;51.580;4.656;2022-08-21T04:07:02;16.02;;;5.65;;
69305;SDS011;56427;51.580;4.656;2022-08-21T04:09:28;18.52;;;6.53;;
69305;SDS011;56427;51.580;4.656;2022-08-21T04:11:53;13.27;;;5.90;;
69305;SDS011;56427;51.580;4.656;2022-08-21T04:14:19;14.10;;;6.10;;
69305;SDS011;56427;51.580;4.656;2022-08-21T04:16:45;12.38;;;6.53;;
69305;SDS011;56427;51.580;4.656;2022-08-21T04:19:11;16.53;;;6.10;;
69305;SDS011;56427;51.580;4.656;2022-08-21T04:21:40;15.80;;;5.90;;
69305;SDS011;56427;51.580;4.656;2022-08-21T04:24:07;14.87;;;6.43;;
69305;SDS011;56427;51.580;4.656;2022-08-21T04:26:34;15.98;;;6.47;;
69305;SDS011;56427;51.580;4.656;2022-08-21T04:29:00;13.10;;;5.78;;
69305;SDS011;56427;51.580;4.656;2022-08-21T04:31:27;17.60;;;6.45;;
69305;SDS011;56427;51.580;4.656;2022-08-21T04:33:53;13.23;;;6.22;;
69305;SDS011;56427;51.580;4.656;2022-08-21T04:36:19;14.30;;;6.30;;
69305;SDS011;56427;51.580;4.656;2022-08-21T04:38:44;16.27;;;6.20;;
69305;SDS011;56427;51.580;4.656;2022-08-21T04:41:09;16.27;;;6.97;;
69305;SDS011;56427;51.580;4.656;2022-08-21T04:43:35;16.33;;;7.47;;
69305;SDS011;56427;51.580;4.656;2022-08-21T04:46:00;13.52;;;6.43;;
69305;SDS011;56427;51.580;4.656;2022-08-21T04:48:26;13.93;;;5.93;;
69305;SDS011;56427;51.580;4.656;2022-08-21T04:50:56;13.10;;;6.18;;
69305;SDS011;56427;51.580;4.656;2022-08-21T04:53:27;17.42;;;6.50;;
69305;SDS011;56427;51.580;4.656;2022-08-21T04:55:56;17.90;;;7.43;;
69305;SDS011;56427;51.580;4.656;2022-08-21T04:58:27;14.80;;;6.47;;
69305;SDS011;56427;51.580;4.656;2022-08-21T05:00:54;16.50;;;6.80;;
69305;SDS011;56427;51.580;4.656;2022-08-21T05:03:21;21.00;;;6.40;;
69305;SDS011;56427;51.580;4.656;2022-08-21T05:05:47;11.85;;;5.72;;
69305;SDS011;56427;51.580;4.656;2022-08-21T05:08:14;15.88;;;6.22;;
69305;SDS011;56427;51.580;4.656;2022-08-21T05:10:44;12.73;;;5.40;;
69305;SDS011;56427;51.580;4.656;2022-08-21T05:13:09;12.43;;;5.75;;
69305;SDS011;56427;51.580;4.656;2022-08-21T05:15:37;17.27;;;5.70;;
69305;SDS011;56427;51.580;4.656;2022-08-21T05:18:03;13.32;;;5.80;;
69305;SDS011;56427;51.580;4.656;2022-08-21T05:20:28;16.87;;;5.47;;
69305;SDS011;56427;51.580;4.656;2022-08-21T05:22:54;12.57;;;5.28;;
69305;SDS011;56427;51.580;4.656;2022-08-21T05:25:19;13.30;;;4.97;;
69305;SDS011;56427;51.580;4.656;2022-08-21T05:27:45;12.57;;;5.07;;
69305;SDS011;56427;51.580;4.656;2022-08-21T05:30:10;15.70;;;5.30;;
69305;SDS011;56427;51.580;4.656;2022-08-21T05:32:36;11.10;;;4.53;;
69305;SDS011;56427;51.580;4.656;2022-08-21T05:35:03;16.92;;;4.93;;
69305;SDS011;56427;51.580;4.656;2022-08-21T05:37:30;12.40;;;5.40;;
69305;SDS011;56427;51.580;4.656;2022-08-21T05:39:55;19.30;;;5.35;;
69305;SDS011;56427;51.580;4.656;2022-08-21T05:42:20;11.70;;;4.33;;
69305;SDS011;56427;51.580;4.656;2022-08-21T05:44:46;10.67;;;4.37;;
69305;SDS011;56427;51.580;4.656;2022-08-21T05:47:11;9.67;;;4.50;;
69305;SDS011;56427;51.580;4.656;2022-08-21T05:49:37;10.13;;;4.93;;
69305;SDS011;56427;51.580;4.656;2022-08-21T05:52:03;13.82;;;4.78;;
69305;SDS011;56427;51.580;4.656;2022-08-21T05:54:29;11.35;;;4.55;;
69305;SDS011;56427;51.580;4.656;2022-08-21T05:56:55;11.40;;;4.10;;
69305;SDS011;56427;51.580;4.656;2022-08-21T05:59:21;13.02;;;4.38;;
69305;SDS011;56427;51.580;4.656;2022-08-21T06:01:46;10.15;;;4.82;;
69305;SDS011;56427;51.580;4.656;2022-08-21T06:04:12;12.13;;;4.00;;
69305;SDS011;56427;51.580;4.656;2022-08-21T06:06:38;7.85;;;4.20;;
69305;SDS011;56427;51.580;4.656;2022-08-21T06:09:03;9.77;;;4.03;;
69305;SDS011;56427;51.580;4.656;2022-08-21T06:11:29;12.40;;;4.80;;
69305;SDS011;56427;51.580;4.656;2022-08-21T06:13:56;10.57;;;4.38;;
69305;SDS011;56427;51.580;4.656;2022-08-21T06:16:21;11.15;;;4.80;;
69305;SDS011;56427;51.580;4.656;2022-08-21T06:18:47;14.07;;;4.60;;
69305;SDS011;56427;51.580;4.656;2022-08-21T06:21:13;11.52;;;4.93;;
69305;SDS011;56427;51.580;4.656;2022-08-21T06:23:39;14.13;;;4.50;;
69305;SDS011;56427;51.580;4.656;2022-08-21T06:26:05;10.20;;;4.43;;
69305;SDS011;56427;51.580;4.656;2022-08-21T06:28:32;13.18;;;4.80;;
69305;SDS011;56427;51.580;4.656;2022-08-21T06:30:58;12.18;;;3.83;;
69305;SDS011;56427;51.580;4.656;2022-08-21T06:33:24;17.17;;;4.35;;
69305;SDS011;56427;51.580;4.656;2022-08-21T06:35:50;12.10;;;4.13;;
69305;SDS011;56427;51.580;4.656;2022-08-21T06:38:15;17.87;;;4.50;;
69305;SDS011;56427;51.580;4.656;2022-08-21T06:40:40;13.80;;;4.60;;
69305;SDS011;56427;51.580;4.656;2022-08-21T06:43:11;14.95;;;4.70;;
69305;SDS011;56427;51.580;4.656;2022-08-21T06:45:38;11.82;;;4.30;;
69305;SDS011;56427;51.580;4.656;2022-08-21T06:48:04;13.60;;;4.20;;
69305;SDS011;56427;51.580;4.656;2022-08-21T06:50:30;19.33;;;4.90;;
69305;SDS011;56427;51.580;4.656;2022-08-21T06:53:15;17.67;;;5.17;;
69305;SDS011;56427;51.580;4.656;2022-08-21T06:55:42;14.85;;;4.55;;
69305;SDS011;56427;51.580;4.656;2022-08-21T06:58:07;9.47;;;3.80;;
69305;SDS011;56427;51.580;4.656;2022-08-21T07:00:34;14.40;;;4.25;;
69305;SDS011;56427;51.580;4.656;2022-08-21T07:03:02;12.15;;;3.45;;
69305;SDS011;56427;51.580;4.656;2022-08-21T07:05:29;10.27;;;3.40;;
69305;SDS011;56427;51.580;4.656;2022-08-21T07:07:56;13.68;;;4.03;;
69305;SDS011;56427;51.580;4.656;2022-08-21T07:10:23;11.88;;;3.63;;
69305;SDS011;56427;51.580;4.656;2022-08-21T07:12:49;12.13;;;3.60;;
69305;SDS011;56427;51.580;4.656;2022-08-21T07:15:16;10.80;;;3.67;;
69305;SDS011;56427;51.580;4.656;2022-08-21T07:17:41;11.15;;;3.40;;
69305;SDS011;56427;51.580;4.656;2022-08-21T07:20:07;8.90;;;3.43;;
69305;SDS011;56427;51.580;4.656;2022-08-21T07:22:34;11.45;;;3.38;;
69305;SDS011;56427;51.580;4.656;2022-08-21T07:25:01;15.25;;;3.35;;
69305;SDS011;56427;51.580;4.656;2022-08-21T07:27:27;15.25;;;3.17;;
69305;SDS011;56427;51.580;4.656;2022-08-21T07:29:52;11.97;;;3.57;;
69305;SDS011;56427;51.580;4.656;2022-08-21T07:32:18;15.43;;;3.30;;
69305;SDS011;56427;51.580;4.656;2022-08-21T07:34:43;10.80;;;3.30;;
69305;SDS011;56427;51.580;4.656;2022-08-21T07:37:09;9.70;;;3.00;;
69305;SDS011;56427;51.580;4.656;2022-08-21T07:39:34;14.97;;;3.70;;
69305;SDS011;56427;51.580;4.656;2022-08-21T07:42:00;10.47;;;3.10;;
69305;SDS011;56427;51.580;4.656;2022-08-21T07:44:25;11.13;;;3.00;;
69305;SDS011;56427;51.580;4.656;2022-08-21T07:46:50;10.73;;;3.00;;
69305;SDS011;56427;51.580;4.656;2022-08-21T07:49:16;12.25;;;3.75;;
69305;SDS011;56427;51.580;4.656;2022-08-21T07:51:41;13.37;;;3.20;;
69305;SDS011;56427;51.580;4.656;2022-08-21T07:54:06;9.50;;;3.30;;
69305;SDS011;56427;51.580;4.656;2022-08-21T07:56:33;12.85;;;3.45;;
69305;SDS011;56427;51.580;4.656;2022-08-21T07:58:58;11.03;;;3.40;;
69305;SDS011;56427;51.580;4.656;2022-08-21T08:01:24;12.27;;;3.53;;
69305;SDS011;56427;51.580;4.656;2022-08-21T08:03:50;9.40;;;3.42;;
69305;SDS011;56427;51.580;4.656;2022-08-21T08:06:15;12.60;;;2.93;;
69305;SDS011;56427;51.580;4.656;2022-08-21T08:08:43;9.95;;;2.88;;
69305;SDS011;56427;51.580;4.656;2022-08-21T08:11:09;11.50;;;3.40;;
69305;SDS011;56427;51.580;4.656;2022-08-21T08:13:39;7.93;;;2.90;;
69305;SDS011;56427;51.580;4.656;2022-08-21T08:16:06;16.35;;;3.45;;
69305;SDS011;56427;51.580;4.656;2022-08-21T08:18:31;11.67;;;2.80;;
69305;SDS011;56427;51.580;4.656;2022-08-21T08:20:57;10.80;;;2.90;;
69305;SDS011;56427;51.580;4.656;2022-08-21T08:23:22;9.50;;;2.93;;
69305;SDS011;56427;51.580;4.656;2022-08-21T08:25:48;11.13;;;3.10;;
69305;SDS011;56427;51.580;4.656;2022-08-21T08:28:13;12.93;;;2.93;;
69305;SDS011;56427;51.580;4.656;2022-08-21T08:30:38;11.60;;;3.50;;
69305;SDS011;56427;51.580;4.656;2022-08-21T08:33:03;8.40;;;2.77;;
69305;SDS011;56427;51.580;4.656;2022-08-21T08:35:29;12.67;;;2.63;;
69305;SDS011;56427;51.580;4.656;2022-08-21T08:37:54;11.23;;;3.33;;
69305;SDS011;56427;51.580;4.656;2022-08-21T08:40:21;13.83;;;3.17;;
69305;SDS011;56427;51.580;4.656;2022-08-21T08:42:58;10.65;;;3.03;;
69305;SDS011;56427;51.580;4.656;2022-08-21T08:45:24;9.73;;;2.50;;
69305;SDS011;56427;51.580;4.656;2022-08-21T08:47:56;11.88;;;2.60;;
69305;SDS011;56427;51.580;4.656;2022-08-21T08:53:07;10.15;;;2.78;;
69305;SDS011;56427;51.580;4.656;2022-08-21T08:55:47;11.52;;;3.03;;
69305;SDS011;56427;51.580;4.656;2022-08-21T08:58:23;11.32;;;3.17;;
69305;SDS011;56427;51.580;4.656;2022-08-21T09:00:52;8.55;;;2.83;;
69305;SDS011;56427;51.580;4.656;2022-08-21T09:03:20;10.90;;;3.17;;
69305;SDS011;56427;51.580;4.656;2022-08-21T09:05:49;10.43;;;3.05;;
69305;SDS011;56427;51.580;4.656;2022-08-21T09:14:10;9.48;;;2.78;;
69305;SDS011;56427;51.580;4.656;2022-08-21T09:19:28;11.32;;;2.67;;
69305;SDS011;56427;51.580;4.656;2022-08-21T09:27:27;9.88;;;2.13;;
69305;SDS011;56427;51.580;4.656;2022-08-21T09:29:54;12.80;;;2.10;;
69305;SDS011;56427;51.580;4.656;2022-08-21T09:32:31;11.07;;;2.22;;
69305;SDS011;56427;51.580;4.656;2022-08-21T09:34:59;9.75;;;2.50;;
69305;SDS011;56427;51.580;4.656;2022-08-21T09:37:35;9.48;;;2.22;;
69305;SDS011;56427;51.580;4.656;2022-08-21T09:40:18;9.85;;;2.28;;
69305;SDS011;56427;51.580;4.656;2022-08-21T09:45:41;10.45;;;2.03;;
69305;SDS011;56427;51.580;4.656;2022-08-21T09:48:08;8.73;;;2.30;;
69305;SDS011;56427;51.580;4.656;2022-08-21T09:50:52;11.63;;;2.10;;
69305;SDS011;56427;51.580;4.656;2022-08-21T09:55:50;9.20;;;2.47;;
69305;SDS011;56427;51.580;4.656;2022-08-21T09:58:41;11.07;;;2.33;;
69305;SDS011;56427;51.580;4.656;2022-08-21T10:01:12;8.68;;;2.30;;
69305;SDS011;56427;51.580;4.656;2022-08-21T10:03:42;11.70;;;2.25;;
69305;SDS011;56427;51.580;4.656;2022-08-21T10:06:09;8.50;;;1.70;;
69305;SDS011;56427;51.580;4.656;2022-08-21T10:08:39;9.60;;;1.63;;
69305;SDS011;56427;51.580;4.656;2022-08-21T10:11:06;8.90;;;1.95;;
69305;SDS011;56427;51.580;4.656;2022-08-21T10:13:55;7.95;;;2.40;;
69305;SDS011;56427;51.580;4.656;2022-08-21T10:16:41;12.57;;;2.65;;
69305;SDS011;56427;51.580;4.656;2022-08-21T10:19:38;9.65;;;1.98;;
69305;SDS011;56427;51.580;4.656;2022-08-21T10:24:54;8.90;;;2.10;;
69305;SDS011;56427;51.580;4.656;2022-08-21T10:29:59;9.18;;;1.75;;
69305;SDS011;56427;51.580;4.656;2022-08-21T10:35:44;5.90;;;1.97;;
69305;SDS011;56427;51.580;4.656;2022-08-21T10:38:35;8.63;;;1.92;;
69305;SDS011;56427;51.580;4.656;2022-08-21T10:49:40;8.63;;;1.63;;
69305;SDS011;56427;51.580;4.656;2022-08-21T10:55:10;5.55;;;1.67;;
69305;SDS011;56427;51.580;4.656;2022-08-21T10:57:42;8.13;;;1.88;;
69305;SDS011;56427;51.580;4.656;2022-08-21T11:00:14;6.50;;;1.75;;
69305;SDS011;56427;51.580;4.656;2022-08-21T11:03:08;12.70;;;3.80;;
69305;SDS011;56427;51.580;4.656;2022-08-21T11:05:40;10.35;;;2.15;;
69305;SDS011;56427;51.580;4.656;2022-08-21T11:13:24;11.35;;;1.60;;
69305;SDS011;56427;51.580;4.656;2022-08-21T11:16:03;8.47;;;1.87;;
69305;SDS011;56427;51.580;4.656;2022-08-21T11:18:39;9.38;;;1.80;;
69305;SDS011;56427;51.580;4.656;2022-08-21T11:21:15;9.35;;;1.73;;
69305;SDS011;56427;51.580;4.656;2022-08-21T11:26:32;7.85;;;1.95;;
69305;SDS011;56427;51.580;4.656;2022-08-21T11:29:04;8.57;;;1.87;;
69305;SDS011;56427;51.580;4.656;2022-08-21T11:31:48;6.68;;;1.63;;
69305;SDS011;56427;51.580;4.656;2022-08-21T11:34:37;8.73;;;2.10;;
69305;SDS011;56427;51.580;4.656;2022-08-21T11:37:23;7.40;;;1.90;;
69305;SDS011;56427;51.580;4.656;2022-08-21T11:51:18;6.05;;;1.70;;
69305;SDS011;56427;51.580;4.656;2022-08-21T11:56:44;5.73;;;1.53;;
69305;SDS011;56427;51.580;4.656;2022-08-21T11:59:18;8.38;;;1.80;;
69305;SDS011;56427;51.580;4.656;2022-08-21T12:01:57;4.80;;;1.70;;
69305;SDS011;56427;51.580;4.656;2022-08-21T12:04:28;10.20;;;2.10;;
69305;SDS011;56427;51.580;4.656;2022-08-21T12:07:13;9.40;;;1.77;;
69305;SDS011;56427;51.580;4.656;2022-08-21T12:09:55;7.25;;;2.28;;
69305;SDS011;56427;51.580;4.656;2022-08-21T12:12:24;8.68;;;1.80;;
69305;SDS011;56427;51.580;4.656;2022-08-21T12:17:50;7.45;;;1.85;;
69305;SDS011;56427;51.580;4.656;2022-08-21T12:20:41;7.23;;;1.80;;
69305;SDS011;56427;51.580;4.656;2022-08-21T12:23:27;9.45;;;2.05;;
69305;SDS011;56427;51.580;4.656;2022-08-21T12:28:35;6.72;;;1.75;;
69305;SDS011;56427;51.580;4.656;2022-08-21T12:31:01;5.80;;;1.73;;
69305;SDS011;56427;51.580;4.656;2022-08-21T12:33:37;8.77;;;1.80;;
69305;SDS011;56427;51.580;4.656;2022-08-21T12:36:07;7.55;;;1.70;;
69305;SDS011;56427;51.580;4.656;2022-08-21T12:38:56;9.52;;;1.98;;
69305;SDS011;56427;51.580;4.656;2022-08-21T12:41:28;6.65;;;1.90;;
69305;SDS011;56427;51.580;4.656;2022-08-21T12:44:04;5.70;;;1.88;;
69305;SDS011;56427;51.580;4.656;2022-08-21T12:46:37;9.20;;;2.10;;
69305;SDS011;56427;51.580;4.656;2022-08-21T12:49:12;8.95;;;1.75;;
69305;SDS011;56427;51.580;4.656;2022-08-21T12:51:55;9.23;;;2.03;;
69305;SDS011;56427;51.580;4.656;2022-08-21T12:54:27;9.07;;;1.88;;
69305;SDS011;56427;51.580;4.656;2022-08-21T12:57:01;9.10;;;1.80;;
69305;SDS011;56427;51.580;4.656;2022-08-21T12:59:29;9.87;;;2.13;;
69305;SDS011;56427;51.580;4.656;2022-08-21T13:01:56;7.95;;;1.98;;
69305;SDS011;56427;51.580;4.656;2022-08-21T13:04:35;8.35;;;2.08;;
69305;SDS011;56427;51.580;4.656;2022-08-21T13:07:05;8.15;;;1.80;;
69305;SDS011;56427;51.580;4.656;2022-08-21T13:09:36;7.28;;;2.10;;
69305;SDS011;56427;51.580;4.656;2022-08-21T13:12:09;7.17;;;2.20;;
69305;SDS011;56427;51.580;4.656;2022-08-21T13:14:35;8.75;;;2.00;;
69305;SDS011;56427;51.580;4.656;2022-08-21T13:17:05;6.50;;;1.70;;
69305;SDS011;56427;51.580;4.656;2022-08-21T13:19:32;8.10;;;1.88;;
69305;SDS011;56427;51.580;4.656;2022-08-21T13:21:59;10.10;;;2.20;;
69305;SDS011;56427;51.580;4.656;2022-08-21T13:24:27;10.38;;;2.05;;
69305;SDS011;56427;51.580;4.656;2022-08-21T13:26:54;6.13;;;1.90;;
69305;SDS011;56427;51.580;4.656;2022-08-21T13:29:22;9.25;;;2.15;;
69305;SDS011;56427;51.580;4.656;2022-08-21T13:31:53;8.63;;;2.42;;
69305;SDS011;56427;51.580;4.656;2022-08-21T13:34:25;7.23;;;2.17;;
69305;SDS011;56427;51.580;4.656;2022-08-21T13:36:55;6.40;;;1.80;;
69305;SDS011;56427;51.580;4.656;2022-08-21T13:39:23;9.50;;;2.28;;
69305;SDS011;56427;51.580;4.656;2022-08-21T13:41:50;8.75;;;1.80;;
69305;SDS011;56427;51.580;4.656;2022-08-21T13:44:20;6.75;;;1.90;;
69305;SDS011;56427;51.580;4.656;2022-08-21T13:46:51;9.00;;;1.80;;
69305;SDS011;56427;51.580;4.656;2022-08-21T13:49:19;7.50;;;1.65;;
69305;SDS011;56427;51.580;4.656;2022-08-21T13:51:48;7.35;;;1.63;;
69305;SDS011;56427;51.580;4.656;2022-08-21T13:54:21;11.05;;;2.10;;
69305;SDS011;56427;51.580;4.656;2022-08-21T13:56:48;7.68;;;1.67;;
69305;SDS011;56427;51.580;4.656;2022-08-21T13:59:23;6.40;;;1.63;;
69305;SDS011;56427;51.580;4.656;2022-08-21T14:01:59;8.25;;;1.65;;
69305;SDS011;56427;51.580;4.656;2022-08-21T14:04:37;6.65;;;1.80;;
69305;SDS011;56427;51.580;4.656;2022-08-21T14:07:19;9.67;;;1.90;;
69305;SDS011;56427;51.580;4.656;2022-08-21T14:09:49;5.28;;;1.60;;
69305;SDS011;56427;51.580;4.656;2022-08-21T14:12:16;7.93;;;1.70;;
69305;SDS011;56427;51.580;4.656;2022-08-21T14:14:49;6.27;;;1.50;;
69305;SDS011;56427;51.580;4.656;2022-08-21T14:17:28;8.27;;;1.60;;
69305;SDS011;56427;51.580;4.656;2022-08-21T14:19:58;8.10;;;1.83;;
69305;SDS011;56427;51.580;4.656;2022-08-21T14:22:31;8.37;;;2.20;;
69305;SDS011;56427;51.580;4.656;2022-08-21T14:27:33;7.65;;;2.10;;
69305;SDS011;56427;51.580;4.656;2022-08-21T14:30:04;6.65;;;1.85;;
69305;SDS011;56427;51.580;4.656;2022-08-21T14:32:39;8.50;;;2.20;;
69305;SDS011;56427;51.580;4.656;2022-08-21T14:35:06;7.47;;;1.83;;
69305;SDS011;56427;51.580;4.656;2022-08-21T14:37:32;8.65;;;1.90;;
69305;SDS011;56427;51.580;4.656;2022-08-21T14:39:58;8.50;;;2.33;;
69305;SDS011;56427;51.580;4.656;2022-08-21T14:42:23;6.23;;;2.00;;
69305;SDS011;56427;51.580;4.656;2022-08-21T14:44:49;7.28;;;2.10;;
69305;SDS011;56427;51.580;4.656;2022-08-21T14:47:15;11.73;;;2.10;;
69305;SDS011;56427;51.580;4.656;2022-08-21T14:49:40;8.40;;;1.93;;
69305;SDS011;56427;51.580;4.656;2022-08-21T14:52:05;8.10;;;1.97;;
69305;SDS011;56427;51.580;4.656;2022-08-21T14:54:31;8.23;;;2.20;;
69305;SDS011;56427;51.580;4.656;2022-08-21T14:56:57;8.88;;;2.33;;
69305;SDS011;56427;51.580;4.656;2022-08-21T14:59:24;7.53;;;1.80;;
69305;SDS011;56427;51.580;4.656;2022-08-21T15:01:50;7.33;;;2.17;;
69305;SDS011;56427;51.580;4.656;2022-08-21T15:04:16;6.57;;;1.90;;
69305;SDS011;56427;51.580;4.656;2022-08-21T15:06:41;10.17;;;2.40;;
69305;SDS011;56427;51.580;4.656;2022-08-21T15:09:06;8.93;;;1.93;;
69305;SDS011;56427;51.580;4.656;2022-08-21T15:11:32;10.47;;;2.10;;
69305;SDS011;56427;51.580;4.656;2022-08-21T15:13:59;7.47;;;2.08;;
69305;SDS011;56427;51.580;4.656;2022-08-21T15:16:26;8.82;;;2.13;;
69305;SDS011;56427;51.580;4.656;2022-08-21T15:18:53;12.68;;;2.55;;
69305;SDS011;56427;51.580;4.656;2022-08-21T15:21:19;8.33;;;2.00;;
69305;SDS011;56427;51.580;4.656;2022-08-21T15:23:44;6.50;;;1.90;;
69305;SDS011;56427;51.580;4.656;2022-08-21T15:26:09;10.87;;;2.00;;
69305;SDS011;56427;51.580;4.656;2022-08-21T15:28:35;10.57;;;2.17;;
69305;SDS011;56427;51.580;4.656;2022-08-21T15:31:02;7.97;;;1.80;;
69305;SDS011;56427;51.580;4.656;2022-08-21T15:33:28;6.13;;;1.90;;
69305;SDS011;56427;51.580;4.656;2022-08-21T15:35:53;6.67;;;1.70;;
69305;SDS011;56427;51.580;4.656;2022-08-21T15:38:19;12.00;;;2.00;;
69305;SDS011;56427;51.580;4.656;2022-08-21T15:40:44;7.17;;;2.03;;
69305;SDS011;56427;51.580;4.656;2022-08-21T15:43:16;8.32;;;1.73;;
69305;SDS011;56427;51.580;4.656;2022-08-21T15:45:47;8.40;;;1.83;;
69305;SDS011;56427;51.580;4.656;2022-08-21T15:48:13;8.50;;;2.20;;
69305;SDS011;56427;51.580;4.656;2022-08-21T15:50:38;8.20;;;1.90;;
69305;SDS011;56427;51.580;4.656;2022-08-21T15:53:03;8.60;;;2.73;;
69305;SDS011;56427;51.580;4.656;2022-08-21T15:55:29;11.23;;;2.50;;
69305;SDS011;56427;51.580;4.656;2022-08-21T15:57:54;6.93;;;2.00;;
69305;SDS011;56427;51.580;4.656;2022-08-21T16:00:21;10.17;;;2.13;;